^^
Datos históricos de la estación: Murcia-Puente Tocinos
Diario Informe para Agosto 03, 2021 Unidades:  Métrico    Ingés   Ambas
Diario Semanal Mensual Anual
  Máxima: Mínima: Promedio:
Temperatura: 31 °C 21.6 °C 26.1 °C
Punto de rocio: 20.1 °C 12.2 °C 17.4 °C
Humedad: 83% 31.7% 62%
Velocidad viento: 18.4km/h 0km/h 7.6km/h
Racha viento: 33.8km/h - -
Viento- - SE
Presión: 1016.1 hPa 1012.3 hPa -
Precipitación: 0.0 mm    
 
 
Tabla de datos para Agosto 03, 2021
Hora Temperatura Punto de rocio Presión Viento Velocidad viento Racha viento Humedad Intensidad lluvia(por hora) Nubes
00:04 24.1 °C 20 °C 1015.1 hPa NE 5.8 km/h 9.7 km/h 78% 0.0 mm
00:09 24.1 °C 20 °C 1015.1 hPa NNE 5.8 km/h 8.4 km/h 78% 0.0 mm
00:14 23.9 °C 19.9 °C 1015.0 hPa NE 5.8 km/h 10.3 km/h 78% 0.0 mm
00:19 23.9 °C 19.8 °C 1015.0 hPa NE 5.8 km/h 11.3 km/h 78% 0.0 mm
00:24 23.9 °C 19.8 °C 1015.1 hPa NE 5.8 km/h 9.7 km/h 78% 0.0 mm
00:29 23.8 °C 19.9 °C 1015.1 hPa NE 6.5 km/h 10.3 km/h 78.8% 0.0 mm
00:34 23.9 °C 20.1 °C 1015.1 hPa ENE 6.9 km/h 11.1 km/h 79% 0.0 mm
00:39 23.9 °C 20.1 °C 1015.1 hPa NE 5.8 km/h 11.3 km/h 79% 0.0 mm
00:44 23.9 °C 20.1 °C 1015.1 hPa ENE 5 km/h 9.7 km/h 79% 0.0 mm
00:49 23.8 °C 20 °C 1015.1 hPa ENE 4.3 km/h 6.9 km/h 79% 0.0 mm
00:54 23.8 °C 19.9 °C 1015.2 hPa NE 3.9 km/h 8 km/h 79% 0.0 mm
00:59 23.8 °C 19.9 °C 1015.2 hPa NE 3.4 km/h 8 km/h 79% 0.0 mm
01:04 23.8 °C 19.9 °C 1015.2 hPa NE 3.2 km/h 9.3 km/h 79% 0.0 mm
01:09 23.8 °C 19.9 °C 1015.2 hPa NE 4.3 km/h 9.7 km/h 79% 0.0 mm
01:14 23.8 °C 19.9 °C 1015.2 hPa Este 5 km/h 8 km/h 79% 0.0 mm
01:19 23.8 °C 19.9 °C 1015.2 hPa Este 3.6 km/h 4.8 km/h 79% 0.0 mm
01:24 23.8 °C 19.9 °C 1015.3 hPa Este 2.9 km/h 5.8 km/h 79% 0.0 mm
01:29 23.8 °C 19.9 °C 1015.3 hPa NE 2.5 km/h 6.4 km/h 79% 0.0 mm
01:34 23.7 °C 19.8 °C 1015.3 hPa NO 2.2 km/h 7.4 km/h 79% 0.0 mm
01:39 23.7 °C 19.8 °C 1015.3 hPa NO 3.2 km/h 8 km/h 79% 0.0 mm
01:44 23.7 °C 19.8 °C 1015.2 hPa NO 3.9 km/h 8 km/h 79% 0.0 mm
01:49 23.7 °C 19.8 °C 1015.2 hPa NO 3.3 km/h 6.4 km/h 79% 0.0 mm
01:54 23.6 °C 19.7 °C 1015.2 hPa NO 2.9 km/h 8 km/h 79.1% 0.0 mm
01:59 23.6 °C 19.7 °C 1015.2 hPa NO 3.5 km/h 8 km/h 79% 0.0 mm
02:04 23.6 °C 19.7 °C 1015.2 hPa NO 3.9 km/h 6.4 km/h 79% 0.0 mm
02:09 23.6 °C 19.7 °C 1015.2 hPa NO 3.2 km/h 4.8 km/h 79% 0.0 mm
02:14 23.6 °C 19.8 °C 1015.0 hPa NO 2.9 km/h 3.7 km/h 79.2% 0.0 mm
02:19 23.6 °C 19.8 °C 1015.0 hPa NE 2.5 km/h 5.8 km/h 79.4% 0.0 mm
02:24 23.5 °C 19.8 °C 1015.0 hPa NE 2.2 km/h 6.4 km/h 80% 0.0 mm
02:29 23.4 °C 19.8 °C 1015.0 hPa NNE 2.7 km/h 5.6 km/h 80% 0.0 mm
02:34 23.4 °C 19.8 °C 1015.0 hPa NNE 2.9 km/h 4.8 km/h 80% 0.0 mm
02:39 23.4 °C 19.8 °C 1015.0 hPa NNE 1 km/h 3.7 km/h 80% 0.0 mm
02:44 23.4 °C 19.8 °C 1014.9 hPa Calm   3.7 km/h 80% 0.0 mm
02:49 23.3 °C 19.7 °C 1014.9 hPa Calm   5.8 km/h 80% 0.0 mm
02:54 23.3 °C 19.6 °C 1014.9 hPa Calm   8.4 km/h 80% 0.0 mm
02:59 23.2 °C 19.6 °C 1014.9 hPa NO 2.7 km/h 8 km/h 80.4% 0.0 mm
03:04 23.2 °C 19.8 °C 1014.9 hPa NO 3.9 km/h 6.4 km/h 81% 0.0 mm
03:09 23.2 °C 19.8 °C 1014.9 hPa NO 3.4 km/h 5 km/h 81% 0.0 mm
03:14 23.1 °C 19.7 °C 1014.9 hPa NO 3.2 km/h 5.6 km/h 81% 0.0 mm
03:19 23.1 °C 19.7 °C 1014.9 hPa NO 3.2 km/h 5.6 km/h 81% 0.0 mm
03:24 23.1 °C 19.7 °C 1014.9 hPa NO 3.2 km/h 5.8 km/h 81% 0.0 mm
03:29 23.1 °C 19.7 °C 1014.9 hPa NO 3 km/h 6.4 km/h 81% 0.0 mm
03:34 23 °C 19.7 °C 1014.9 hPa NO 2.9 km/h 4.8 km/h 81.4% 0.0 mm
03:39 23 °C 19.7 °C 1014.9 hPa NO 1.2 km/h 3.7 km/h 82% 0.0 mm
03:44 22.9 °C 19.6 °C 1014.9 hPa Calm   7.4 km/h 81.5% 0.0 mm
03:49 22.8 °C 19.4 °C 1014.9 hPa Este 2.1 km/h 8 km/h 81.2% 0.0 mm
03:54 22.7 °C 19.4 °C 1014.9 hPa Este 3.2 km/h 8 km/h 82% 0.0 mm
03:59 22.6 °C 19.3 °C 1014.9 hPa Este 3.2 km/h 7.4 km/h 81.6% 0.0 mm
04:04 22.5 °C 19.3 °C 1014.9 hPa ESE 3.2 km/h 8 km/h 82% 0.0 mm
04:09 22.5 °C 19.3 °C 1015.0 hPa ESE 3.2 km/h 5.6 km/h 82% 0.0 mm
04:14 22.5 °C 19.3 °C 1015.0 hPa ESE 3.2 km/h 4.8 km/h 82% 0.0 mm
04:19 22.6 °C 19.4 °C 1015.0 hPa ESE 1.3 km/h 3.2 km/h 82% 0.0 mm
04:24 22.5 °C 19.3 °C 1015.0 hPa Calm   3.7 km/h 81.9% 0.0 mm
04:29 22.6 °C 19.3 °C 1014.9 hPa Calm   3.7 km/h 82% 0.0 mm
04:34 22.6 °C 19.4 °C 1014.9 hPa Calm   6.4 km/h 81.9% 0.0 mm
04:39 22.6 °C 19.1 °C 1014.9 hPa ONO 1.9 km/h 8.4 km/h 81% 0.0 mm
04:44 22.5 °C 19.2 °C 1014.9 hPa ONO 3.2 km/h 3.7 km/h 82% 0.0 mm
04:49 22.4 °C 19.2 °C 1014.9 hPa ONO 2.6 km/h 3.2 km/h 82% 0.0 mm
04:54 22.4 °C 19.2 °C 1014.9 hPa ONO 2.2 km/h 4.7 km/h 82.2% 0.0 mm
04:59 22.4 °C 19.4 °C 1014.8 hPa ONO 2.2 km/h 4.8 km/h 83% 0.0 mm
05:04 22.4 °C 19.4 °C 1014.8 hPa ONO 2.2 km/h 5.6 km/h 83% 0.0 mm
05:09 22.4 °C 19.4 °C 1014.8 hPa ONO 0.7 km/h 5.6 km/h 83% 0.0 mm
05:14 22.5 °C 19.4 °C 1014.8 hPa Calm   7.4 km/h 83% 0.0 mm
05:19 22.4 °C 19.3 °C 1014.8 hPa SO 2.1 km/h 8 km/h 82.5% 0.0 mm
05:24 22.4 °C 19.2 °C 1014.8 hPa SO 3.2 km/h 8 km/h 82% 0.0 mm
05:29 22.4 °C 19 °C 1014.7 hPa SSE 3.6 km/h 8.4 km/h 81.1% 0.0 mm
05:34 22.3 °C 18.9 °C 1014.7 hPa SE 3.9 km/h 8 km/h 81% 0.0 mm
05:39 22.3 °C 18.9 °C 1014.7 hPa Sur 3.9 km/h 7.6 km/h 81% 0.0 mm
05:44 22.3 °C 18.9 °C 1014.6 hPa Sur 3.9 km/h 8 km/h 81% 0.0 mm
05:49 22.2 °C 18.8 °C 1014.6 hPa Sur 4.4 km/h 8 km/h 81% 0.0 mm
05:54 22.2 °C 18.8 °C 1014.6 hPa Sur 4.7 km/h 8 km/h 81% 0.0 mm
05:59 22.2 °C 18.8 °C 1014.5 hPa SSO 4.7 km/h 9.5 km/h 81% 0.0 mm
06:04 22.2 °C 18.9 °C 1014.5 hPa SSO 4.7 km/h 9.7 km/h 81.4% 0.0 mm
06:09 22.1 °C 18.9 °C 1014.5 hPa SSO 5.8 km/h 9.7 km/h 82% 0.0 mm
06:14 22.1 °C 18.9 °C 1014.5 hPa SSO 6.5 km/h 8.7 km/h 82% 0.0 mm
06:19 22.1 °C 18.9 °C 1014.5 hPa SSO 6.1 km/h 11.1 km/h 82% 0.0 mm
06:24 22 °C 18.8 °C 1014.5 hPa SO 5.8 km/h 11.3 km/h 82% 0.0 mm
06:29 22 °C 18.8 °C 1014.5 hPa SSO 5.8 km/h 9.7 km/h 82% 0.0 mm
06:34 21.9 °C 18.7 °C 1014.5 hPa Sur 5.8 km/h 11.1 km/h 82% 0.0 mm
06:39 21.8 °C 18.6 °C 1014.5 hPa Sur 6.5 km/h 11.3 km/h 82% 0.0 mm
06:44 21.8 °C 18.6 °C 1014.5 hPa Sur 6.9 km/h 11.1 km/h 82% 0.0 mm
06:49 21.7 °C 18.5 °C 1014.5 hPa SSO 6.9 km/h 11.3 km/h 82.1% 0.0 mm
06:54 21.7 °C 18.7 °C 1014.7 hPa SSO 6.9 km/h 10 km/h 83% 0.0 mm
06:59 21.7 °C 18.6 °C 1014.7 hPa SSO 6.6 km/h 11.1 km/h 83% 0.0 mm
07:04 21.6 °C 18.6 °C 1014.7 hPa SSO 6.5 km/h 11.3 km/h 83% 0.0 mm
07:09 21.6 °C 18.6 °C 1014.7 hPa SSO 6.5 km/h 9.7 km/h 83% 0.0 mm
07:14 21.6 °C 18.6 °C 1014.7 hPa SSO 6.5 km/h 9.7 km/h 83% 0.0 mm
07:19 21.6 °C 18.5 °C 1014.7 hPa SO 6.5 km/h 11.1 km/h 82.5% 0.0 mm
07:24 21.6 °C 18.4 °C 1014.7 hPa OSO 6.5 km/h 11.3 km/h 82% 0.0 mm
07:29 21.6 °C 18.4 °C 1014.7 hPa SO 6.8 km/h 11.3 km/h 82% 0.0 mm
07:34 21.6 °C 18.4 °C 1014.7 hPa SSO 6.9 km/h 9.7 km/h 82% 0.0 mm
07:39 21.6 °C 18.4 °C 1014.8 hPa SSO 6.2 km/h 9.3 km/h 82% 0.0 mm
07:44 21.6 °C 18.4 °C 1014.8 hPa SSO 5.8 km/h 10 km/h 82% 0.0 mm
07:49 21.6 °C 18.4 °C 1014.8 hPa SSO 6.5 km/h 11.1 km/h 82% 0.0 mm
07:54 21.6 °C 18.4 °C 1014.9 hPa SSO 6.9 km/h 11.3 km/h 82% 0.0 mm
07:59 21.7 °C 18.5 °C 1014.9 hPa SO 6.4 km/h 9.7 km/h 82% 0.0 mm
08:04 21.8 °C 18.4 °C 1014.9 hPa Sur 5.8 km/h 9.3 km/h 81.2% 0.0 mm
08:09 21.9 °C 18.5 °C 1015.1 hPa SSO 6.2 km/h 9.7 km/h 81% 0.0 mm
08:14 21.9 °C 18.5 °C 1015.1 hPa SSO 6.5 km/h 11.9 km/h 81% 0.0 mm
08:19 22 °C 18.6 °C 1015.1 hPa SSO 6.7 km/h 11.3 km/h 81% 0.0 mm
08:24 22.1 °C 18.7 °C 1015.3 hPa SSO 6.9 km/h 11.3 km/h 81% 0.0 mm
08:29 22.1 °C 18.5 °C 1015.3 hPa SSO 6.6 km/h 11.1 km/h 80.1% 0.0 mm
08:34 22.2 °C 18.6 °C 1015.3 hPa Sur 6.5 km/h 11.3 km/h 80% 0.0 mm
08:39 22.2 °C 18.6 °C 1015.3 hPa Sur 7.2 km/h 11.3 km/h 80% 0.0 mm
08:44 22.2 °C 18.6 °C 1015.3 hPa SSO 7.6 km/h 11.3 km/h 80% 0.0 mm
08:49 22.3 °C 18.7 °C 1015.3 hPa Sur 7.6 km/h 11.3 km/h 80% 0.0 mm
08:54 22.4 °C 18.8 °C 1015.4 hPa SSO 7.6 km/h 10 km/h 80% 0.0 mm
08:59 22.5 °C 18.9 °C 1015.4 hPa SSO 7.1 km/h 11.1 km/h 80% 0.0 mm
09:04 22.6 °C 19 °C 1015.4 hPa Sur 6.9 km/h 11.3 km/h 80% 0.0 mm
09:09 22.8 °C 19.1 °C 1015.6 hPa SSE 6.2 km/h 10 km/h 79.7% 0.0 mm
09:14 22.9 °C 19 °C 1015.6 hPa SSE 5.8 km/h 9.7 km/h 79% 0.0 mm
09:19 23 °C 19.2 °C 1015.6 hPa SSE 5.8 km/h 9.7 km/h 79% 0.0 mm
09:24 23.2 °C 19.3 °C 1015.7 hPa SSO 5.8 km/h 8 km/h 79% 0.0 mm
09:29 23.4 °C 19.2 °C 1015.7 hPa SO 4.5 km/h 8 km/h 77.5% 0.0 mm
09:34 23.6 °C 19.3 °C 1015.7 hPa SO 3.9 km/h 8 km/h 77.3% 0.0 mm
09:39 23.8 °C 19.4 °C 1015.8 hPa ESE 3.4 km/h 10 km/h 76.5% 0.0 mm
09:44 24 °C 19.5 °C 1015.8 hPa Este 3.2 km/h 9.7 km/h 76% 0.0 mm
09:49 24.2 °C 19.6 °C 1015.8 hPa ESE 4.2 km/h 8 km/h 75.1% 0.0 mm
09:54 24.6 °C 19.6 °C 1015.8 hPa NE 4.7 km/h 8 km/h 73.7% 0.0 mm
09:59 24.7 °C 19.4 °C 1015.8 hPa SE 4.1 km/h 8 km/h 72.1% 0.0 mm
10:04 24.8 °C 19.4 °C 1015.8 hPa Este 3.9 km/h 8 km/h 71.8% 0.0 mm
10:09 25.1 °C 19.5 °C 1015.8 hPa NNE 3.4 km/h 8 km/h 71.2% 0.0 mm
10:14 25.4 °C 19.5 °C 1015.8 hPa NE 3.2 km/h 8 km/h 70.1% 0.0 mm
10:19 25.7 °C 19.4 °C 1015.8 hPa NO 3.2 km/h 8 km/h 68.4% 0.0 mm
10:24 25.9 °C 19.4 °C 1015.9 hPa ENE 3.2 km/h 8 km/h 67.5% 0.0 mm
10:29 26.2 °C 19.1 °C 1015.9 hPa NNE 3.2 km/h 8 km/h 65.1% 0.0 mm
10:34 26.4 °C 19 °C 1015.9 hPa ENE 3.2 km/h 8 km/h 64% 0.0 mm
10:39 26.5 °C 18.9 °C 1016.0 hPa NO 3.7 km/h 9.5 km/h 62.9% 0.0 mm
10:44 26.3 °C 18.4 °C 1016.0 hPa ONO 3.9 km/h 9.7 km/h 62% 0.0 mm
10:49 26.2 °C 18.6 °C 1016.0 hPa NNO 4.5 km/h 10 km/h 62.9% 0.0 mm
10:54 26.2 °C 18.6 °C 1016.1 hPa ONO 5 km/h 9.7 km/h 62.9% 0.0 mm
10:59 26.3 °C 18.5 °C 1016.1 hPa North 4.8 km/h 13 km/h 62.5% 0.0 mm
11:04 26.4 °C 18.7 °C 1016.1 hPa NNE 4.6 km/h 13.7 km/h 62.4% 0.0 mm
11:09 26.6 °C 18.5 °C 1016.1 hPa NNE 5.4 km/h 16.7 km/h 61.2% 0.0 mm
11:14 26.6 °C 18.3 °C 1016.1 hPa NE 5.8 km/h 16.1 km/h 60.5% 0.0 mm
11:19 26.5 °C 18.2 °C 1016.1 hPa NE 6.9 km/h 22.2 km/h 60.3% 0.0 mm
11:24 26.3 °C 17.9 °C 1016.1 hPa NE 7.6 km/h 22.5 km/h 60.1% 0.0 mm
11:29 26.3 °C 18 °C 1016.0 hPa NE 7.1 km/h 11.3 km/h 60.2% 0.0 mm
11:34 26.6 °C 18.2 °C 1016.0 hPa ENE 6.9 km/h 11.9 km/h 60% 0.0 mm
11:39 26.8 °C 17.8 °C 1016.0 hPa NNE 6.9 km/h 14.8 km/h 58.2% 0.0 mm
11:44 26.9 °C 17.9 °C 1015.9 hPa NNE 6.9 km/h 14.5 km/h 57.8% 0.0 mm
11:49 27.1 °C 18.2 °C 1015.9 hPa ENE 6.9 km/h 14 km/h 58.6% 0.0 mm
11:54 27.2 °C 18.4 °C 1015.9 hPa NE 6.9 km/h 14.8 km/h 58.6% 0.0 mm
11:59 27.2 °C 17.7 °C 1015.9 hPa NNE 6.9 km/h 18.5 km/h 56.2% 0.0 mm
12:04 27.1 °C 17 °C 1015.9 hPa NE 6.9 km/h 19.3 km/h 54.1% 0.0 mm
12:09 27.1 °C 17.2 °C 1015.9 hPa NE 8.6 km/h 16.1 km/h 54.8% 0.0 mm
12:14 27.2 °C 17.7 °C 1015.7 hPa Este 9.5 km/h 17.2 km/h 56% 0.0 mm
12:19 27.4 °C 17.8 °C 1015.7 hPa NE 9.5 km/h 20.4 km/h 55.8% 0.0 mm
12:24 27.4 °C 17.7 °C 1015.7 hPa NNE 9.5 km/h 20.9 km/h 55.7% 0.0 mm
12:29 27.6 °C 17.4 °C 1015.6 hPa ESE 7.3 km/h 11.3 km/h 53.9% 0.0 mm
12:34 27.9 °C 17.4 °C 1015.6 hPa SSE 5.8 km/h 11.9 km/h 52.7% 0.0 mm
12:39 28.2 °C 16.8 °C 1015.6 hPa NE 5.1 km/h 22 km/h 50.1% 0.0 mm
12:44 28.3 °C 16.4 °C 1015.3 hPa NNE 4.7 km/h 22.5 km/h 48.5% 0.0 mm
12:49 28.3 °C 16 °C 1015.3 hPa NE 8.1 km/h 20.9 km/h 47.3% 0.0 mm
12:54 28.3 °C 15.6 °C 1015.3 hPa North 10 km/h 20.9 km/h 46% 0.0 mm
12:59 28.3 °C 15.4 °C 1015.2 hPa North 9.1 km/h 20.4 km/h 45.4% 0.0 mm
13:04 28.4 °C 15.5 °C 1015.2 hPa North 8.7 km/h 20.9 km/h 45.6% 0.0 mm
13:09 28.6 °C 16.1 °C 1015.2 hPa NNE 8.5 km/h 16.7 km/h 46.8% 0.0 mm
13:14 28.7 °C 16 °C 1015.1 hPa North 8.4 km/h 12.9 km/h 46% 0.0 mm
13:19 29 °C 14.7 °C 1015.1 hPa NNE 6.7 km/h 14.8 km/h 41.8% 0.0 mm
13:24 29.2 °C 15.1 °C 1015.1 hPa NNE 5.8 km/h 14.5 km/h 42.4% 0.0 mm
13:29 29.4 °C 15.9 °C 1014.8 hPa ENE 6.9 km/h 15.6 km/h 44.1% 0.0 mm
13:34 29.4 °C 16 °C 1014.8 hPa NE 7.6 km/h 20.1 km/h 44.4% 0.0 mm
13:39 29.4 °C 16 °C 1014.8 hPa NNE 9 km/h 20.9 km/h 44.2% 0.0 mm
13:44 29.6 °C 15.9 °C 1014.4 hPa NNO 10 km/h 25.9 km/h 43.4% 0.0 mm
13:49 29.6 °C 15.5 °C 1014.4 hPa NE 9.1 km/h 25.7 km/h 42.5% 0.0 mm
13:54 29.6 °C 16.1 °C 1014.4 hPa NE 8.7 km/h 20.9 km/h 43.9% 0.0 mm
13:59 30 °C 16.5 °C 1014.4 hPa NNE 8 km/h 17.2 km/h 44.3% 0.0 mm
14:04 30 °C 16.5 °C 1014.4 hPa NNO 7.6 km/h 17.7 km/h 44.3% 0.0 mm
14:09 29.8 °C 16.2 °C 1014.4 hPa NNO 8.7 km/h 12.9 km/h 43.9% 0.0 mm
14:14 29.8 °C 16.5 °C 1014.3 hPa ENE 9.5 km/h 16.4 km/h 44.7% 0.0 mm
14:19 29.9 °C 16.3 °C 1014.3 hPa NE 8.3 km/h 20.4 km/h 44% 0.0 mm
14:24 30.1 °C 16.2 °C 1014.3 hPa ENE 7.6 km/h 20.9 km/h 43% 0.0 mm
14:29 30.3 °C 16.1 °C 1014.1 hPa NE 7.2 km/h 22 km/h 42.4% 0.0 mm
14:34 30.5 °C 16 °C 1014.1 hPa Este 6.9 km/h 22.5 km/h 41.7% 0.0 mm
14:39 30.6 °C 16.3 °C 1014.1 hPa ENE 8.8 km/h 22.5 km/h 42.2% 0.0 mm
14:44 30.7 °C 16 °C 1013.8 hPa NNE 10 km/h 22.5 km/h 41.3% 0.0 mm
14:49 30.7 °C 16 °C 1013.8 hPa North 9.7 km/h 22.2 km/h 41.4% 0.0 mm
14:54 30.7 °C 15.9 °C 1013.8 hPa NE 9.5 km/h 22.5 km/h 40.9% 0.0 mm
14:59 30.7 °C 15.3 °C 1013.7 hPa NE 10.6 km/h 19.3 km/h 39.3% 0.0 mm
15:04 30.8 °C 15.1 °C 1013.7 hPa NNE 11.1 km/h 22.2 km/h 38.8% 0.0 mm
15:09 30.8 °C 14.8 °C 1013.7 hPa NNE 11.1 km/h 22.5 km/h 37.9% 0.0 mm
15:14 31 °C 16 °C 1013.5 hPa NE 11.1 km/h 22.2 km/h 40.5% 0.0 mm
15:19 31 °C 16.1 °C 1013.5 hPa NE 11.1 km/h 29.6 km/h 40.8% 0.0 mm
15:24 30.8 °C 15.9 °C 1013.5 hPa NE 11.1 km/h 29 km/h 40.6% 0.0 mm
15:29 30.9 °C 15.8 °C 1013.3 hPa NE 13.4 km/h 27.4 km/h 40.2% 0.0 mm
15:34 31 °C 15.7 °C 1013.3 hPa NE 14.8 km/h 25.6 km/h 39.8% 0.0 mm
15:39 30.9 °C 15.3 °C 1013.4 hPa ENE 14.1 km/h 25.9 km/h 38.9% 0.0 mm
15:44 30.8 °C 14.9 °C 1013.4 hPa NE 13.7 km/h 26.2 km/h 38.2% 0.0 mm
15:49 30.7 °C 14.5 °C 1013.4 hPa NE 14.4 km/h 29.8 km/h 37.2% 0.0 mm
15:54 30.7 °C 14.3 °C 1013.4 hPa NE 14.8 km/h 30.6 km/h 36.9% 0.0 mm
15:59 30.8 °C 14.4 °C 1013.2 hPa NE 13.6 km/h 25.9 km/h 37% 0.0 mm
16:04 30.8 °C 14.2 °C 1013.2 hPa NE 13 km/h 27.8 km/h 36.5% 0.0 mm
16:09 30.8 °C 13.8 °C 1013.2 hPa NE 14.9 km/h 33.5 km/h 35.5% 0.0 mm
16:14 30.6 °C 13.4 °C 1013.0 hPa NE 16.1 km/h 33.8 km/h 35% 0.0 mm
16:19 30.4 °C 13.3 °C 1013.0 hPa NE 17.5 km/h 30.6 km/h 35.3% 0.0 mm
16:24 30.7 °C 13.3 °C 1013.0 hPa ENE 18.4 km/h 27.4 km/h 34.6% 0.0 mm
16:29 30.9 °C 12.6 °C 1013.0 hPa NE 15.5 km/h 27.8 km/h 32.7% 0.0 mm
16:34 31 °C 12.6 °C 1013.0 hPa ENE 13.7 km/h 23.3 km/h 32.5% 0.0 mm
16:39 31 °C 12.3 °C 1013.0 hPa ENE 12.6 km/h 29.8 km/h 31.7% 0.0 mm
16:44 30.9 °C 12.2 °C 1013.0 hPa ENE 11.9 km/h 30.6 km/h 31.9% 0.0 mm
16:49 30.9 °C 12.3 °C 1013.0 hPa NE 13 km/h 28.2 km/h 31.9% 0.0 mm
16:54 30.9 °C 12.6 °C 1013.0 hPa NE 13.7 km/h 27.8 km/h 32.6% 0.0 mm
16:59 30.9 °C 12.9 °C 1012.8 hPa ENE 13.9 km/h 27.4 km/h 33.3% 0.0 mm
17:04 30.9 °C 13.2 °C 1012.8 hPa NE 14 km/h 25.9 km/h 33.9% 0.0 mm
17:09 30.9 °C 13.5 °C 1012.9 hPa NE 14 km/h 28.6 km/h 34.6% 0.0 mm
17:14 30.8 °C 13.3 °C 1012.9 hPa NE 14 km/h 29 km/h 34.5% 0.0 mm
17:19 30.9 °C 13.4 °C 1012.9 hPa NE 14.5 km/h 25.7 km/h 34.4% 0.0 mm
17:24 30.9 °C 13.6 °C 1012.9 hPa NE 14.8 km/h 31.5 km/h 34.9% 0.0 mm
17:29 30.7 °C 13.5 °C 1012.8 hPa NE 15.6 km/h 32.2 km/h 35% 0.0 mm
17:34 30.8 °C 13.4 °C 1012.8 hPa NNE 16.1 km/h 24.1 km/h 34.5% 0.0 mm
17:39 30.8 °C 13.2 °C 1012.8 hPa NE 14.8 km/h 24.1 km/h 34.2% 0.0 mm
17:44 30.8 °C 13.6 °C 1012.6 hPa NE 14 km/h 26.2 km/h 35% 0.0 mm
17:49 30.8 °C 13.3 °C 1012.6 hPa NE 13.8 km/h 25.7 km/h 34.5% 0.0 mm
17:54 30.8 °C 13.5 °C 1012.6 hPa NE 13.7 km/h 24.5 km/h 35% 0.0 mm
17:59 30.7 °C 13.5 °C 1012.6 hPa NE 14.9 km/h 25.9 km/h 35% 0.0 mm
18:04 30.8 °C 13.2 °C 1012.6 hPa NE 15.6 km/h 25.9 km/h 34.3% 0.0 mm
18:09 30.7 °C 13.3 °C 1012.6 hPa NE 14.6 km/h 26.2 km/h 34.6% 0.0 mm
18:14 30.6 °C 13.6 °C 1012.5 hPa NE 14 km/h 25.9 km/h 35.5% 0.0 mm
18:19 30.6 °C 14.2 °C 1012.5 hPa NE 14.5 km/h 25.7 km/h 36.9% 0.0 mm
18:24 30.6 °C 14 °C 1012.5 hPa NE 14.8 km/h 25.9 km/h 36.3% 0.0 mm
18:29 30.7 °C 14 °C 1012.4 hPa ENE 12.5 km/h 22.5 km/h 36.2% 0.0 mm
18:34 30.6 °C 14.3 °C 1012.4 hPa ENE 11.1 km/h 20.9 km/h 37.1% 0.0 mm
18:39 30.5 °C 14.1 °C 1012.4 hPa Este 12.3 km/h 20.9 km/h 37% 0.0 mm
18:44 30.5 °C 14.1 °C 1012.4 hPa ESE 13 km/h 20.9 km/h 36.8% 0.0 mm
18:49 30.4 °C 13.7 °C 1012.4 hPa Este 11.9 km/h 20.4 km/h 36.1% 0.0 mm
18:54 30.3 °C 13.8 °C 1012.4 hPa Este 11.1 km/h 20.9 km/h 36.5% 0.0 mm
18:59 30.3 °C 13.7 °C 1012.4 hPa ESE 10.6 km/h 20.9 km/h 36.4% 0.0 mm
19:04 30.2 °C 13.6 °C 1012.4 hPa ESE 10.3 km/h 19.3 km/h 36.3% 0.0 mm
19:09 30.2 °C 13.9 °C 1012.4 hPa Este 10.8 km/h 20.9 km/h 37% 0.0 mm
19:14 30 °C 14.2 °C 1012.3 hPa ESE 11.1 km/h 28.2 km/h 38.2% 0.0 mm
19:19 29.8 °C 14 °C 1012.3 hPa ESE 12.7 km/h 27.4 km/h 38.1% 0.0 mm
19:24 29.8 °C 13.8 °C 1012.3 hPa SE 13.7 km/h 27.8 km/h 37.6% 0.0 mm
19:29 29.7 °C 14 °C 1012.3 hPa SE 13.9 km/h 27.4 km/h 38.2% 0.0 mm
19:34 29.4 °C 14 °C 1012.3 hPa SE 14 km/h 25.9 km/h 38.9% 0.0 mm
19:39 29.3 °C 14.4 °C 1012.4 hPa SE 15.5 km/h 24.5 km/h 40.4% 0.0 mm
19:44 29.2 °C 15.1 °C 1012.4 hPa ESE 16.4 km/h 25.1 km/h 42.3% 0.0 mm
19:49 29.1 °C 15.3 °C 1012.4 hPa ESE 15.9 km/h 27.8 km/h 43.1% 0.0 mm
19:54 29.1 °C 15.2 °C 1012.4 hPa SE 15.6 km/h 27.4 km/h 43% 0.0 mm
19:59 29 °C 15.5 °C 1012.4 hPa ESE 13.5 km/h 20.9 km/h 43.9% 0.0 mm
20:04 28.8 °C 15.1 °C 1012.4 hPa SE 12.2 km/h 24.5 km/h 43.3% 0.0 mm
20:09 28.6 °C 15.3 °C 1012.6 hPa ESE 14.4 km/h 27.8 km/h 44.5% 0.0 mm
20:14 28.5 °C 15.3 °C 1012.6 hPa ESE 15.6 km/h 27.4 km/h 44.8% 0.0 mm
20:19 28.4 °C 15.6 °C 1012.6 hPa ESE 14.6 km/h 22.5 km/h 45.6% 0.0 mm
20:24 28.4 °C 15.6 °C 1012.8 hPa ESE 14 km/h 20.9 km/h 46% 0.0 mm
20:29 28.3 °C 15.7 °C 1012.8 hPa ESE 12.9 km/h 20.9 km/h 46.6% 0.0 mm
20:34 28.2 °C 16.3 °C 1012.8 hPa ESE 12.2 km/h 20.9 km/h 48.5% 0.0 mm
20:39 28.1 °C 16.9 °C 1012.8 hPa ESE 12 km/h 19.3 km/h 50.5% 0.0 mm
20:44 27.9 °C 17 °C 1012.8 hPa ESE 11.9 km/h 20.9 km/h 51.6% 0.0 mm
20:46 27.7 °C 16.9 °C 1012.8 hPa Este 11.9 km/h 20.9 km/h 52% 0.0 mm
Murcia-Puente Tocinos, España
Compliments of Weather Underground - 2.75 mb

La estación de MeteoMurcia.com, publica sus datos en los siguientes proyectos:

Weather Underground PWS IMURCIAP2 Meteoclimatic www.awekas.at

W3Counter
Web Analytics